Terminal Aerodrome Forecast
Issued by NWS Buffalo, NY

Home | Current Version | Previous Version | Text Only | Print | Product List | Glossary On
Versions: 1 2 3 4 5 6 7 8 9 10 11 12 13 14 15 16 17 18 19 20 21 22 23 24 25 26 27
686
FTUS41 KBUF 302340
TAFROC
TAF
KROC 302340Z 3100/3124 27011KT P6SM FEW050 FEW250
     FM310300 VRB03KT P6SM FEW250
     FM310500 24004KT P6SM FEW250
     FM311200 29011KT P6SM FEW250=

USA.gov is the U.S. government's official web portal to all federal, state and local government web resources and services.